Monday, April 21, 2014
02:15 UTC
  |  Log In   |  Register Free
Airport Search:

Okmulgee Regional Airport
(KOKM)

Okmulgee Regional Airport Diagram
No Airport Diagram Available

FAA data valid effective April 3, 2014 until May 29, 2014 (unless otherwise noted).

 
 
 
 
 
 
 
 
 
 
 
 
 
 

Current Aviation Weather for Okmulgee Regional Airport (KOKM)

The most recent METAR observation for KOKM was updated at: 0155 UTC
METAR Summary (Translated METAR)
KOKM
210155Z AUTO 15012G17KT 10SM -RA OVC100 17/16 A3002 RMK AO2 T01720161
KRVS
(22.4 nm NW from KOKM)
210153Z 00000KT 6SM -RA BR BKN110 17/16 A3002 RMK AO2 RAB53 SLP174 P0000 T01720161
TAF Summary (Translated TAF)
KRVS
(22.4 nm NW from KOKM)
201739Z 2018/2118 18010KT P6SM VCSH SCT045 BKN100 FM210200 17005KT P6SM VCSH OVC050 PROB30 2103/2107 4SM -TSRA BKN015 OVC025CB FM210700 17006KT 5SM SHRA OVC025 FM211200 18005KT 6SM BR VCSH OVC015
  Airport Weather Conditions for KOKM

 Current Weather at OKM
64° F
Light Drizzle
South winds at 13.8 mph
OKM NOAA Radar

Pressure: 30.03 in
Humidity: 92%
Wind: from the South at 13.8 gusting to 20.7 MPH (12 gusting to 18 KT)
Dew Point: 61.2°F
Visibility: 10.00 mi


Airport Weather Forecast for KOKM

Translated METAR and TAF for KOKM
Translated METAR for KOKM (0215 UTC 21 April 2014)
found at http://aviationweather.gov/adds/metars/
 
METAR text: KOKM 210155Z AUTO 15012G17KT 10SM -RA OVC100 17/16 A3002 RMK AO2 T01720161
Conditions at: KOKM (OKMULGEE , OK, US) observed 0155 UTC 21 April 2014
Temperature: 17.2°C (63°F)
Dewpoint: 16.1°C (61°F) [RH = 93%]
Pressure (altimeter): 30.02 inches Hg (1016.7 mb)
Winds: from the SSE (150 degrees) at 14 MPH (12 knots; 6.2 m/s)
gusting to 20 MPH (17 knots; 8.8 m/s)
Visibility: 10 or more miles (16+ km)
Ceiling: 10000 feet AGL
Clouds: overcast cloud deck at 10000 feet AGL
Weather: -RA  (light rain)
Translated TAF for KOKM

There is no translated TAF available for this airport

Find All Airport Services Find A Hotel Find A Rental Car Find A Golf Course Find A Restaurant $100 Hamburger



FBO's on the Field
FBO Company Facility Photos Services Transportation Aviation Fuel Prices: Prices include tax
Catering Weather Repair Courtesy Rental Type 100LL JetA JetA+ MOGAS 8087
 
Okmulgee Regional Airport

This FBO has not yet been rated
FS:Phillips66
Last Updated: Apr-02
Login to update fuel prices
SS:
Contact Okmulgee Regional AirportMore FBO Information
 
Add another FBO Facility Photos Catering Weather Repair Courtesy Rental Type 100LL JetA JetA+ MOGAS 8087
Services Transportation Aviation Fuel Prices: Prices include tax


GlobalAir.com Airport Resource Center model-print
model-print
model-print
model-print